Huvudsida
METAR-TAF:

METAR-TAF

Flygplatser :

Užice, Serbien

latitud: 43-53-56N, longitud: 19-41-52E, höjd: 904 m

Aktuellt väderrapport

Denna rapport gjordes för 27 minuter sedan, klockan 01:00 UTC
Vind 1 kt varierande vindriktning
Temperatur 15°C
Fuktighet 94%
Tryck 1022 hPa
Sikt 10 km eller mer
Inga moln under 1 500 m eller inga cumulonimbus

METAR: LYUZ 250100Z AUTO VRB01KT CAVOK 15/14 Q1022

Tid: 03:27 (01:27 UTC)

Väderprognos

Denna rapport gjordes för 2 timmar och 27 minuter sedan, klockan 23:00 UTC
Prognos gäller från 25 kl. 00 UTC till 25 kl. 24 UTC
Vind 5 kt från väst/nordväst
Sikt 10 km eller mer
Spridda moln på en höjd av 2200 ft
Temporärt
från 25 kl. 12 UTC till 25 kl. 16 UTC
Sikt: 4000 m
Spridda moln på en höjd av 1500 ft, Cumulonimbus.
Spridda moln på en höjd av 2000 ft
åska, regn

TAF: LYUZ 242300Z 2500/2524 30005KT 9999 SCT022 TX25/2512Z TN14/2504Z TEMPO 2512/2516 4000 TSRA SCT015CB SCT020

Aktuella väderrapporter och prognoser från 4000 flygplatser (METAR- och TAF-rapporter).

De tillgängliga stationerna syns som gula och röda prickar på kartan.

För musen över prickarna för att se namnen på stationerna.

Klicka sedan för att få väderrapporter och prognoser.

För att ändra kartan: Klicka på de gröna knapparna med ett svart kors på för att zooma in; den gröna knappen med ett streck på för att zooma ut; eller på de gröna pilarna för angränsande kartor.


METAR-TAF: